Time;durP1;ratioP1;P1;durP2;ratioP2;P2;SDS_P1;SDS_P2;PMS_P1;PMS_P2;Temp;Humidity;BMP_temperature;BMP_pressure;BME280_temperature;BME280_humidity;BME280_pressure;Samples;Min_cycle;Max_cycle;Signal;HPM_P1;HPM_P2
2021/09/30 00:01:55;;;;;;;125.95;71.07;;;10.40;99.90;;;;;;5081642;28;20013;-58
2021/09/30 00:04:20;;;;;;;7.85;2.63;;;10.40;99.90;;;;;;5070687;28;20104;-56
2021/09/30 00:06:46;;;;;;;1.23;0.80;;;10.30;99.90;;;;;;5066438;28;20028;-57
2021/09/30 00:09:12;;;;;;;2.90;0.90;;;10.30;99.90;;;;;;5060961;28;20504;-51
2021/09/30 00:11:42;;;;;;;4.43;1.17;;;10.20;99.90;;;;;;5050640;28;20096;-63
2021/09/30 00:41:11;;;;;;;2.13;0.98;;;10.20;99.90;;;;;;5050554;28;20091;-50
2021/09/30 00:46:27;;;;;;;4.97;1.08;;;10.20;99.90;;;;;;5049840;28;20035;-56
2021/09/30 00:49:04;;;;;;;0.70;0.70;;;10.10;99.90;;;;;;5049613;28;20055;-55
2021/09/30 00:51:43;;;;;;;1.20;1.10;;;10.00;99.90;;;;;;5065512;28;20082;-57
2021/09/30 01:52:04;;;;;;;0.98;0.85;;;9.60;99.90;;;;;;5068419;28;20047;-51
2021/09/30 01:58:39;;;;;;;2.33;1.17;;;9.50;99.90;;;;;;5030919;28;20048;-45
2021/09/30 02:20:58;;;;;;;2.75;1.38;;;8.80;99.90;;;;;;5053986;28;20046;-46
2021/09/30 02:28:57;;;;;;;8.00;1.50;;;8.70;99.90;;;;;;5052584;28;20029;-45
2021/09/30 02:59:20;;;;;;;6.07;1.88;;;8.50;99.90;;;;;;5051852;28;20068;-47
2021/09/30 03:01:48;;;;;;;1.90;1.63;;;8.50;99.90;;;;;;5052641;28;20080;-45
2021/09/30 03:04:14;;;;;;;3.10;1.98;;;8.50;99.90;;;;;;5051550;28;20022;-46
2021/09/30 03:06:42;;;;;;;5.47;2.22;;;8.50;99.90;;;;;;5052159;28;20025;-47
2021/09/30 03:09:09;;;;;;;3.95;1.48;;;8.50;99.90;;;;;;5051569;28;20665;-48
2021/09/30 03:11:38;;;;;;;3.15;2.35;;;8.50;99.90;;;;;;5052368;28;20078;-44
2021/09/30 03:14:05;;;;;;;2.90;2.10;;;8.50;99.90;;;;;;5051797;28;20103;-48
2021/09/30 03:16:45;;;;;;;7.68;1.77;;;8.50;99.90;;;;;;5052248;28;20512;-44
2021/09/30 03:24:37;;;;;;;3.92;1.90;;;8.40;99.90;;;;;;5052360;28;20021;-48
2021/09/30 03:27:03;;;;;;;4.47;2.17;;;8.40;99.90;;;;;;5052006;28;20017;-44
2021/09/30 03:29:29;;;;;;;7.18;2.63;;;8.50;99.90;;;;;;5051307;28;20047;-48
2021/09/30 03:31:56;;;;;;;5.55;2.17;;;8.60;99.90;;;;;;5051942;28;20486;-44
2021/09/30 03:34:21;;;;;;;5.07;2.25;;;8.70;99.90;;;;;;5051825;28;20029;-44
2021/09/30 03:36:47;;;;;;;5.07;2.35;;;8.70;99.90;;;;;;5051773;28;20029;-50
2021/09/30 03:39:15;;;;;;;4.18;2.28;;;8.70;99.90;;;;;;5051023;28;20029;-47
2021/09/30 03:41:42;;;;;;;2.97;1.77;;;8.70;99.90;;;;;;5051825;28;20045;-47
2021/09/30 03:44:09;;;;;;;4.70;1.88;;;8.70;99.90;;;;;;5051726;28;20032;-43
2021/09/30 03:46:35;;;;;;;3.90;1.77;;;8.70;99.90;;;;;;5051785;28;20033;-47
2021/09/30 03:49:07;;;;;;;7.75;2.33;;;8.70;99.90;;;;;;5050945;28;20040;-47
2021/09/30 03:51:49;;;;;;;3.47;1.80;;;8.70;99.90;;;;;;5051820;28;20107;-46
2021/09/30 03:57:38;;;;;;;4.22;2.00;;;8.70;99.90;;;;;;5051610;28;20028;-46
2021/09/30 03:59:35;;;;;;;3.47;2.15;;;8.70;99.90;;;;;;5042693;28;20069;-45
2021/09/30 04:02:02;;;;;;;3.75;1.83;;;8.70;99.90;;;;;;5051452;28;20535;-44
2021/09/30 04:04:31;;;;;;;3.25;1.85;;;8.70;99.90;;;;;;5049722;28;20017;-46
2021/09/30 04:06:57;;;;;;;6.85;2.20;;;8.70;99.90;;;;;;5051570;28;20546;-44
2021/09/30 04:09:27;;;;;;;6.10;2.17;;;8.80;99.90;;;;;;5050692;28;20482;-45
2021/09/30 04:11:54;;;;;;;5.72;2.15;;;8.80;99.90;;;;;;5051164;28;20070;-45
2021/09/30 04:14:19;;;;;;;5.70;2.03;;;8.70;99.90;;;;;;5051392;28;20047;-45
2021/09/30 04:16:47;;;;;;;4.22;2.47;;;8.70;99.90;;;;;;5051146;28;20486;-47
2021/09/30 04:19:17;;;;;;;4.93;2.00;;;8.60;99.90;;;;;;5050454;28;20037;-47
2021/09/30 04:21:45;;;;;;;6.13;2.03;;;8.60;99.90;;;;;;5051067;28;20013;-45
2021/09/30 04:24:11;;;;;;;5.47;2.30;;;8.50;99.90;;;;;;5050927;28;20027;-47
2021/09/30 04:26:36;;;;;;;5.60;2.58;;;8.40;99.90;;;;;;5050679;28;20025;-47
2021/09/30 04:29:03;;;;;;;3.05;2.08;;;8.40;99.90;;;;;;5050187;28;20025;-47
2021/09/30 04:31:28;;;;;;;3.58;1.90;;;8.30;99.90;;;;;;5050874;28;20094;-45
2021/09/30 04:33:54;;;;;;;3.03;2.20;;;8.30;99.90;;;;;;5050692;28;20021;-48
2021/09/30 04:36:21;;;;;;;3.78;2.20;;;8.30;99.90;;;;;;5050849;28;20063;-50
2021/09/30 04:38:48;;;;;;;5.65;2.95;;;8.30;99.90;;;;;;5049872;28;20071;-44
2021/09/30 04:41:14;;;;;;;11.45;2.60;;;8.20;99.90;;;;;;5050925;28;20021;-50
2021/09/30 04:43:40;;;;;;;8.63;3.50;;;8.20;99.90;;;;;;5050718;28;20483;-45
2021/09/30 04:46:06;;;;;;;6.13;3.08;;;8.20;99.90;;;;;;5050756;28;20025;-46
2021/09/30 04:48:31;;;;;;;5.45;2.58;;;8.20;99.90;;;;;;5049830;28;20017;-48
2021/09/30 04:50:56;;;;;;;6.97;2.97;;;8.10;99.90;;;;;;5050382;28;20384;-46
2021/09/30 04:53:22;;;;;;;5.60;2.97;;;8.10;99.90;;;;;;5050594;28;20055;-47
2021/09/30 04:55:48;;;;;;;10.07;3.25;;;8.10;99.90;;;;;;5050865;28;20029;-44
2021/09/30 04:58:13;;;;;;;5.68;2.85;;;8.00;99.90;;;;;;5049996;28;20032;-50
2021/09/30 05:00:39;;;;;;;5.75;3.95;;;8.10;99.90;;;;;;5050329;28;20102;-50
2021/09/30 05:03:04;;;;;;;6.95;3.10;;;8.10;99.90;;;;;;5049166;28;20359;-49
2021/09/30 05:05:30;;;;;;;6.65;3.05;;;8.10;99.90;;;;;;5052117;28;20029;-46
2021/09/30 05:07:55;;;;;;;6.80;3.85;;;8.10;99.90;;;;;;5057150;28;20386;-46
2021/09/30 05:10:22;;;;;;;8.68;4.22;;;8.10;99.90;;;;;;5055748;28;20171;-46
2021/09/30 05:12:49;;;;;;;9.15;3.45;;;8.10;99.90;;;;;;5050665;28;20037;-48
2021/09/30 05:15:14;;;;;;;8.25;2.83;;;8.00;99.90;;;;;;5050653;28;20028;-46
2021/09/30 05:17:40;;;;;;;9.20;4.25;;;8.00;99.90;;;;;;5049654;28;20059;-46
2021/09/30 05:20:06;;;;;;;7.55;3.35;;;8.10;99.90;;;;;;5050005;28;20035;-50
2021/09/30 05:22:32;;;;;;;9.13;3.70;;;8.00;99.90;;;;;;5050088;28;20025;-48
2021/09/30 05:24:57;;;;;;;5.65;3.50;;;8.00;99.90;;;;;;5050422;28;20028;-48
2021/09/30 05:27:23;;;;;;;9.48;3.72;;;8.00;99.90;;;;;;5049539;28;20116;-47
2021/09/30 05:29:48;;;;;;;12.63;3.72;;;8.00;99.90;;;;;;5050145;28;20036;-46
2021/09/30 05:32:14;;;;;;;4.10;3.10;;;8.10;99.90;;;;;;5050301;28;20056;-48
2021/09/30 05:34:41;;;;;;;7.90;3.50;;;8.10;99.90;;;;;;5050050;28;20100;-45
2021/09/30 05:37:07;;;;;;;11.10;3.90;;;8.10;99.90;;;;;;5052081;28;20063;-45
2021/09/30 05:39:32;;;;;;;9.15;3.55;;;8.10;99.90;;;;;;5035701;28;20068;-47
2021/09/30 05:41:58;;;;;;;12.88;4.78;;;8.00;99.90;;;;;;5054119;28;20027;-43
2021/09/30 05:44:25;;;;;;;4.75;3.53;;;8.10;99.90;;;;;;5054224;28;20013;-44
2021/09/30 05:46:55;;;;;;;7.97;3.55;;;8.00;99.90;;;;;;5053975;28;20017;-50
2021/09/30 05:49:25;;;;;;;6.85;4.05;;;8.00;99.90;;;;;;5053305;28;20036;-49
2021/09/30 05:51:51;;;;;;;8.75;3.78;;;8.10;99.90;;;;;;5054067;28;20033;-46
2021/09/30 05:54:16;;;;;;;6.25;3.70;;;8.00;99.90;;;;;;5054087;28;20025;-47
2021/09/30 05:56:42;;;;;;;4.18;3.40;;;8.10;99.90;;;;;;5054049;28;20107;-45
2021/09/30 05:59:08;;;;;;;6.78;3.63;;;8.20;99.90;;;;;;5053162;28;20130;-44
2021/09/30 06:02:27;;;;;;;8.48;3.25;;;8.20;99.90;;;;;;5053966;28;20032;-43
2021/09/30 06:12:54;;;;;;;5.43;3.35;;;8.40;99.90;;;;;;5053517;28;20611;-47
2021/09/30 06:15:27;;;;;;;7.68;4.13;;;8.40;99.90;;;;;;5053695;28;20029;-48
2021/09/30 06:17:55;;;;;;;6.93;3.97;;;8.40;99.90;;;;;;5052797;28;20437;-45
2021/09/30 06:20:21;;;;;;;5.68;3.83;;;8.40;99.90;;;;;;5053347;28;20021;-49
2021/09/30 06:22:47;;;;;;;7.03;3.67;;;8.30;99.90;;;;;;5035397;28;20143;-47
2021/09/30 06:25:12;;;;;;;8.05;3.92;;;8.40;99.90;;;;;;5053238;28;20024;-43
2021/09/30 06:27:38;;;;;;;6.32;3.45;;;8.40;99.90;;;;;;5052643;28;20075;-45
2021/09/30 06:30:04;;;;;;;7.75;4.13;;;8.50;99.90;;;;;;5052996;28;20064;-48
2021/09/30 06:32:30;;;;;;;7.68;4.25;;;8.60;99.90;;;;;;5053128;28;20028;-47
2021/09/30 06:34:56;;;;;;;9.70;3.50;;;8.70;99.90;;;;;;5053133;28;20074;-44
2021/09/30 06:37:21;;;;;;;8.93;3.80;;;8.80;99.90;;;;;;5052604;28;20025;-46
2021/09/30 06:39:47;;;;;;;8.18;3.50;;;8.80;99.90;;;;;;5035080;28;20046;-45
2021/09/30 06:42:12;;;;;;;5.00;3.80;;;8.90;99.90;;;;;;5053557;28;20493;-46
2021/09/30 06:44:38;;;;;;;11.23;3.50;;;9.00;99.90;;;;;;5035389;28;20025;-50
2021/09/30 06:47:04;;;;;;;10.55;4.13;;;9.00;99.90;;;;;;5038211;28;20394;-48
2021/09/30 06:49:29;;;;;;;7.35;3.80;;;9.00;99.90;;;;;;5068582;28;20035;-47
2021/09/30 06:51:55;;;;;;;4.30;2.72;;;9.10;99.90;;;;;;5072334;28;20081;-44
2021/09/30 06:54:20;;;;;;;7.18;3.03;;;9.20;99.90;;;;;;5072908;28;20035;-51
2021/09/30 06:56:49;;;;;;;8.88;3.35;;;9.30;99.90;;;;;;5059312;28;20037;-54
2021/09/30 06:59:23;;;;;;;6.55;3.20;;;9.40;99.90;;;;;;5072953;28;20036;-48
2021/09/30 07:01:49;;;;;;;6.10;3.08;;;9.60;99.90;;;;;;5061400;28;20086;-50
2021/09/30 07:04:15;;;;;;;4.95;2.95;;;10.00;99.90;;;;;;5070866;28;20024;-47
2021/09/30 07:06:42;;;;;;;4.07;3.13;;;10.20;99.90;;;;;;5072189;28;20074;-46
2021/09/30 07:09:08;;;;;;;5.50;2.80;;;10.50;99.90;;;;;;5051855;28;20425;-48
2021/09/30 07:11:33;;;;;;;6.63;3.22;;;10.70;99.90;;;;;;5071919;28;20024;-46
2021/09/30 07:13:59;;;;;;;7.35;3.63;;;10.80;99.90;;;;;;5072127;28;20016;-45
2021/09/30 07:16:25;;;;;;;5.15;3.03;;;10.90;99.90;;;;;;5072219;28;20029;-49
2021/09/30 07:18:51;;;;;;;6.25;3.08;;;11.00;99.90;;;;;;5070899;28;20546;-48
2021/09/30 07:21:17;;;;;;;3.63;3.15;;;11.00;99.90;;;;;;5070893;28;20111;-48
2021/09/30 07:23:43;;;;;;;4.43;3.38;;;11.00;99.90;;;;;;5071930;28;20146;-51
2021/09/30 07:26:09;;;;;;;8.05;3.55;;;11.00;99.90;;;;;;5072201;28;20075;-47
2021/09/30 07:28:36;;;;;;;5.50;3.50;;;11.00;99.90;;;;;;5053376;28;20111;-49
2021/09/30 07:31:03;;;;;;;3.75;3.00;;;11.10;99.90;;;;;;5072017;28;20043;-48
2021/09/30 07:33:29;;;;;;;11.80;4.18;;;11.20;99.90;;;;;;5072124;28;20028;-45
2021/09/30 07:35:54;;;;;;;10.32;3.72;;;11.10;99.90;;;;;;5071873;28;20401;-46
2021/09/30 07:38:22;;;;;;;5.35;3.47;;;11.10;99.90;;;;;;5071302;28;20050;-47
2021/09/30 07:40:51;;;;;;;5.57;3.55;;;11.10;99.90;;;;;;5049858;23;20050;-50
2021/09/30 07:43:17;;;;;;;7.45;3.70;;;11.00;99.90;;;;;;5030421;28;20499;-52
2021/09/30 07:45:43;;;;;;;6.85;3.83;;;11.00;99.90;;;;;;5031699;28;20025;-56
2021/09/30 07:48:08;;;;;;;9.05;3.63;;;11.10;99.90;;;;;;5031003;28;20100;-51
2021/09/30 07:50:34;;;;;;;5.93;3.67;;;11.10;99.90;;;;;;5030412;28;20447;-50
2021/09/30 07:53:00;;;;;;;7.10;3.65;;;10.90;99.90;;;;;;5031777;28;20025;-50
2021/09/30 07:55:26;;;;;;;7.25;4.32;;;10.90;99.90;;;;;;5031788;28;20033;-50
2021/09/30 07:57:52;;;;;;;12.88;4.22;;;10.80;99.90;;;;;;5030732;28;20037;-53
2021/09/30 08:00:17;;;;;;;5.15;3.92;;;10.70;99.90;;;;;;5031485;28;20037;-51
2021/09/30 08:02:43;;;;;;;10.13;3.58;;;10.80;99.90;;;;;;5031604;28;20148;-51
2021/09/30 08:05:09;;;;;;;6.07;3.55;;;10.80;99.90;;;;;;5030142;28;20021;-51
2021/09/30 08:07:35;;;;;;;5.97;4.40;;;10.90;99.90;;;;;;5031662;28;20038;-50
2021/09/30 08:10:01;;;;;;;6.00;3.85;;;10.70;99.90;;;;;;5031612;28;20138;-52
2021/09/30 08:12:26;;;;;;;5.82;3.65;;;10.70;99.90;;;;;;5031434;28;20033;-51
2021/09/30 08:14:52;;;;;;;6.38;3.53;;;10.60;99.90;;;;;;5031135;28;20053;-52
2021/09/30 08:17:18;;;;;;;6.95;3.67;;;10.50;99.90;;;;;;5030412;28;20510;-50
2021/09/30 08:19:44;;;;;;;7.90;3.70;;;10.50;99.90;;;;;;5031380;28;20043;-53
2021/09/30 08:22:09;;;;;;;9.18;3.55;;;10.60;99.90;;;;;;5031361;28;20438;-51
2021/09/30 08:24:35;;;;;;;7.05;3.60;;;10.80;99.90;;;;;;5031596;28;20021;-51
2021/09/30 08:27:01;;;;;;;7.00;3.03;;;10.80;99.90;;;;;;5031038;28;20116;-52
2021/09/30 08:29:27;;;;;;;5.38;3.17;;;10.90;99.90;;;;;;5030353;28;20064;-48
2021/09/30 08:31:53;;;;;;;6.35;3.05;;;11.00;99.90;;;;;;5029982;28;20025;-49
2021/09/30 08:34:18;;;;;;;7.88;3.28;;;11.10;99.90;;;;;;5030989;28;20402;-51
2021/09/30 08:36:44;;;;;;;5.60;2.65;;;11.10;99.90;;;;;;5030874;28;20030;-50
2021/09/30 08:39:10;;;;;;;7.00;3.50;;;11.20;99.90;;;;;;5030127;28;20037;-48
2021/09/30 08:41:36;;;;;;;7.97;3.13;;;11.20;99.90;;;;;;5030618;28;20116;-49
2021/09/30 08:44:05;;;;;;;8.23;3.47;;;11.20;99.90;;;;;;5030963;28;20124;-51
2021/09/30 08:46:32;;;;;;;4.55;3.25;;;11.30;99.90;;;;;;5030656;28;20021;-51
2021/09/30 08:48:58;;;;;;;4.93;3.22;;;11.40;99.90;;;;;;5028910;28;20026;-49
2021/09/30 08:51:23;;;;;;;5.53;3.45;;;11.50;99.90;;;;;;5030888;28;20037;-50
2021/09/30 08:53:49;;;;;;;9.23;3.78;;;11.60;99.90;;;;;;5030833;28;20570;-50
2021/09/30 08:56:14;;;;;;;7.47;3.05;;;11.70;99.90;;;;;;5029656;28;20048;-51
2021/09/30 08:58:40;;;;;;;8.45;4.22;;;11.90;99.90;;;;;;5028737;28;20093;-47
2021/09/30 09:01:08;;;;;;;5.22;3.08;;;12.30;99.90;;;;;;5030391;28;20569;-50
2021/09/30 09:03:42;;;;;;;8.43;2.92;;;13.30;99.90;;;;;;5025344;28;20030;-49
2021/09/30 09:06:13;;;;;;;7.35;3.15;;;14.50;99.90;;;;;;5029706;28;20501;-53
2021/09/30 09:08:38;;;;;;;6.28;2.85;;;15.30;99.90;;;;;;5029681;28;20375;-48
2021/09/30 09:11:05;;;;;;;7.72;2.75;;;16.10;98.30;;;;;;5029558;28;20048;-55
2021/09/30 09:13:32;;;;;;;6.55;2.50;;;15.70;97.80;;;;;;5028546;28;20551;-49
2021/09/30 09:16:00;;;;;;;3.15;2.67;;;16.10;97.90;;;;;;5030593;28;20060;-55
2021/09/30 09:18:31;;;;;;;6.25;2.53;;;17.00;97.10;;;;;;5029526;28;20030;-52
2021/09/30 09:21:04;;;;;;;4.10;2.03;;;18.00;95.10;;;;;;5030475;28;20395;-49
2021/09/30 09:23:31;;;;;;;8.27;2.20;;;18.30;94.10;;;;;;5028284;28;20025;-52
2021/09/30 09:26:18;;;;;;;4.70;1.85;;;18.70;94.10;;;;;;5029137;28;20094;-50
2021/09/30 09:29:22;;;;;;;3.20;1.77;;;19.10;92.90;;;;;;5027589;28;20083;-49
2021/09/30 09:31:52;;;;;;;2.45;1.65;;;19.60;92.70;;;;;;4986909;28;20452;-49
2021/09/30 09:34:36;;;;;;;7.20;2.30;;;19.80;91.40;;;;;;4987515;28;20120;-54
2021/09/30 09:37:28;;;;;;;16.35;8.10;;;19.50;90.90;;;;;;5014335;28;20041;-49
2021/09/30 09:39:54;;;;;;;16.00;8.82;;;18.90;92.20;;;;;;5029831;28;20018;-54
2021/09/30 09:42:26;;;;;;;5.78;2.17;;;18.50;93.00;;;;;;5029517;28;20096;-52
2021/09/30 09:44:53;;;;;;;10.43;2.63;;;18.60;92.60;;;;;;5029935;28;20022;-51
2021/09/30 09:47:29;;;;;;;2.83;1.98;;;18.60;92.40;;;;;;5028003;28;20053;-53
2021/09/30 09:50:21;;;;;;;10.30;2.33;;;18.00;93.00;;;;;;5029643;28;20503;-51
2021/09/30 09:53:00;;;;;;;5.13;1.98;;;18.10;93.60;;;;;;5029463;28;20406;-52
2021/09/30 09:55:41;;;;;;;2.97;1.83;;;17.70;93.50;;;;;;5029713;28;20036;-49
2021/09/30 09:58:17;;;;;;;5.57;1.85;;;17.50;94.20;;;;;;5028817;28;20053;-53
2021/09/30 10:00:42;;;;;;;;;;;17.80;94.40;;;;;;5029617;28;20083;-52
2021/09/30 10:03:12;;;;;;;3.60;2.22;;;17.90;93.60;;;;;;5029519;28;19908;-53
2021/09/30 10:05:38;;;;;;;7.03;2.28;;;17.70;94.00;;;;;;5029359;28;20041;-47
2021/09/30 10:08:04;;;;;;;3.08;2.00;;;18.10;94.40;;;;;;5028983;28;20026;-50
2021/09/30 10:10:29;;;;;;;3.08;2.05;;;18.20;93.50;;;;;;5028988;28;20116;-53
2021/09/30 10:12:56;;;;;;;7.57;2.30;;;17.70;93.70;;;;;;5028748;28;20088;-54
2021/09/30 10:15:23;;;;;;;4.57;1.90;;;17.50;94.80;;;;;;5029365;28;20037;-55
2021/09/30 10:17:48;;;;;;;4.45;1.88;;;17.50;95.00;;;;;;5028088;28;20034;-52
2021/09/30 10:20:14;;;;;;;8.23;2.40;;;17.30;93.90;;;;;;5029360;28;20038;-52
2021/09/30 10:22:40;;;;;;;8.05;2.58;;;17.00;94.40;;;;;;5029674;28;20391;-51
2021/09/30 10:25:06;;;;;;;9.40;1.55;;;17.00;95.00;;;;;;5031493;28;20122;-56
2021/09/30 10:27:34;;;;;;;3.55;1.67;;;17.00;94.30;;;;;;5031084;28;20491;-55
2021/09/30 10:30:00;;;;;;;2.00;1.77;;;17.20;94.00;;;;;;5032952;28;20041;-55
2021/09/30 10:32:26;;;;;;;8.10;1.85;;;17.20;94.40;;;;;;5033225;28;20041;-47
2021/09/30 10:34:59;;;;;;;9.90;2.25;;;17.10;93.90;;;;;;5032740;28;20108;-60
2021/09/30 10:37:31;;;;;;;6.57;1.70;;;16.80;94.30;;;;;;5032604;28;20025;-59
2021/09/30 10:40:20;;;;;;;4.18;2.00;;;16.80;94.90;;;;;;5032605;28;20568;-60
2021/09/30 10:42:57;;;;;;;4.30;2.15;;;16.60;95.00;;;;;;5031770;28;20060;-59
2021/09/30 10:45:26;;;;;;;5.72;1.88;;;16.70;94.90;;;;;;5032703;28;20104;-60
2021/09/30 10:47:53;;;;;;;1.40;1.30;;;16.60;94.80;;;;;;5032341;28;20060;-60
2021/09/30 10:50:19;;;;;;;5.25;1.58;;;16.70;95.20;;;;;;5032285;28;20032;-60
2021/09/30 10:52:55;;;;;;;5.53;1.63;;;16.80;95.50;;;;;;5032897;28;20108;-60
2021/09/30 10:55:23;;;;;;;2.85;1.65;;;16.90;94.10;;;;;;5032385;28;20061;-60
2021/09/30 10:57:51;;;;;;;4.32;1.70;;;16.90;94.00;;;;;;5031741;28;20111;-59
2021/09/30 11:00:16;;;;;;;3.58;1.63;;;16.80;93.80;;;;;;5032579;28;20029;-60
2021/09/30 11:03:09;;;;;;;3.85;1.33;;;16.70;93.70;;;;;;5031096;28;20028;-58
2021/09/30 11:05:38;;;;;;;3.72;1.65;;;16.60;93.90;;;;;;5032601;28;20021;-59
2021/09/30 11:08:23;;;;;;;8.23;1.52;;;16.30;93.90;;;;;;5031579;28;20421;-58
2021/09/30 11:11:01;;;;;;;;;;;16.20;94.90;;;;;;5033014;28;20105;-57
2021/09/30 11:13:38;;;;;;;2.67;1.40;;;16.10;94.70;;;;;;5028341;28;19913;-60
2021/09/30 11:16:07;;;;;;;5.68;1.30;;;15.80;94.70;;;;;;5029642;28;20102;-60
2021/09/30 11:18:54;;;;;;;9.35;2.35;;;15.70;95.10;;;;;;5029387;28;20109;-58
2021/09/30 11:21:28;;;;;;;5.03;3.22;;;15.60;95.60;;;;;;5031752;28;20029;-60
2021/09/30 11:23:59;;;;;;;4.75;2.38;;;15.60;95.70;;;;;;5018772;28;20028;-59
2021/09/30 11:26:26;;;;;;;3.55;1.48;;;15.50;96.40;;;;;;5032007;28;20028;-60
2021/09/30 11:28:53;;;;;;;5.82;1.70;;;15.40;96.20;;;;;;5031299;28;20426;-60
2021/09/30 11:31:24;;;;;;;5.13;1.98;;;15.30;96.40;;;;;;5032183;28;20478;-61
2021/09/30 11:33:51;;;;;;;4.00;1.20;;;15.20;97.00;;;;;;5029667;28;20026;-61
2021/09/30 11:36:17;;;;;;;3.75;1.35;;;15.20;96.40;;;;;;5031849;28;20026;-59
2021/09/30 11:38:43;;;;;;;1.20;1.10;;;15.20;96.60;;;;;;5029460;28;20376;-61
2021/09/30 11:41:09;;;;;;;3.25;1.38;;;15.10;96.30;;;;;;5028541;28;20025;-57
2021/09/30 11:43:35;;;;;;;4.68;1.40;;;15.10;95.90;;;;;;5031489;28;20100;-60
2021/09/30 11:46:24;;;;;;;5.57;1.55;;;15.00;95.60;;;;;;5031470;28;20113;-61
2021/09/30 11:48:57;;;;;;;0.88;0.70;;;15.20;95.60;;;;;;5025007;28;20034;-60
2021/09/30 11:51:40;;;;;;;4.03;1.17;;;15.30;95.60;;;;;;5031369;28;20052;-60
2021/09/30 11:54:08;;;;;;;3.97;1.40;;;15.40;95.40;;;;;;5029964;28;20092;-56
2021/09/30 11:56:47;;;;;;;3.10;1.50;;;15.40;95.50;;;;;;5031022;28;20033;-60
2021/09/30 11:59:15;;;;;;;1.95;0.75;;;15.50;95.90;;;;;;5028746;28;20427;-61
2021/09/30 12:01:47;;;;;;;12.75;1.98;;;15.50;95.50;;;;;;5031562;28;20387;-61
2021/09/30 12:04:27;;;;;;;11.45;1.50;;;15.40;95.40;;;;;;5031545;28;20033;-60
2021/09/30 12:06:53;;;;;;;9.48;1.20;;;15.40;95.40;;;;;;5031371;28;20025;-61
2021/09/30 12:09:20;;;;;;;10.10;2.50;;;15.30;95.20;;;;;;5030776;28;20037;-61
2021/09/30 12:11:56;;;;;;;2.10;1.08;;;15.20;94.80;;;;;;5031525;28;20082;-61
2021/09/30 12:14:22;;;;;;;2.92;1.25;;;15.20;94.80;;;;;;5031682;28;20356;-61
2021/09/30 12:17:00;;;;;;;6.30;1.27;;;15.10;95.20;;;;;;5031249;28;20391;-60
2021/09/30 12:19:32;;;;;;;5.57;1.45;;;15.10;95.30;;;;;;5030927;28;20517;-61
2021/09/30 12:21:58;;;;;;;4.28;1.20;;;15.20;95.10;;;;;;5031193;28;20025;-61
2021/09/30 12:24:25;;;;;;;4.18;1.05;;;15.10;94.60;;;;;;5030233;28;20352;-61
2021/09/30 12:26:52;;;;;;;2.97;1.15;;;15.10;95.00;;;;;;5030789;28;20030;-59
2021/09/30 12:29:18;;;;;;;4.43;1.23;;;15.10;95.40;;;;;;5030951;28;20540;-60
2021/09/30 12:31:45;;;;;;;38.15;26.63;;;15.10;94.40;;;;;;5031237;28;20025;-61
2021/09/30 12:34:23;;;;;;;64.15;42.53;;;15.20;93.70;;;;;;5031359;28;20618;-60
2021/09/30 12:36:49;;;;;;;3.05;1.25;;;15.40;92.20;;;;;;5030915;28;20029;-61
2021/09/30 12:39:24;;;;;;;1.25;0.77;;;15.60;92.00;;;;;;5029104;28;20076;-61
2021/09/30 12:41:50;;;;;;;5.53;1.37;;;15.60;92.20;;;;;;5031260;28;20022;-53
2021/09/30 12:44:16;;;;;;;5.50;1.15;;;15.70;91.70;;;;;;5031087;28;20025;-58
2021/09/30 12:46:43;;;;;;;1.75;1.00;;;15.80;90.60;;;;;;5030493;28;20052;-49
2021/09/30 12:49:09;;;;;;;1.80;0.70;;;15.80;90.90;;;;;;5030808;28;20065;-53
2021/09/30 12:51:34;;;;;;;2.95;0.70;;;15.90;90.70;;;;;;5031261;28;20079;-49
2021/09/30 12:54:00;;;;;;;3.80;1.00;;;15.90;90.90;;;;;;5030592;28;20021;-49
2021/09/30 12:56:32;;;;;;;4.22;0.90;;;15.90;90.50;;;;;;5031096;28;20060;-52
2021/09/30 12:59:14;;;;;;;4.03;0.90;;;16.00;90.60;;;;;;5030689;28;20033;-50
2021/09/30 13:01:42;;;;;;;2.72;1.05;;;16.00;90.70;;;;;;5031059;28;20021;-49
2021/09/30 13:04:16;;;;;;;1.80;1.00;;;16.00;90.80;;;;;;5030855;28;20104;-50
2021/09/30 13:06:56;;;;;;;1.52;1.33;;;16.00;90.50;;;;;;5030781;28;20030;-50
2021/09/30 13:09:33;;;;;;;2.00;1.00;;;16.10;90.70;;;;;;5030210;28;20026;-53
2021/09/30 13:11:59;;;;;;;3.10;0.90;;;16.20;89.70;;;;;;5029461;28;20086;-51
2021/09/30 13:14:31;;;;;;;3.17;1.15;;;16.30;88.50;;;;;;5030609;28;20475;-48
2021/09/30 13:17:05;;;;;;;1.67;1.17;;;16.30;88.70;;;;;;5030455;28;20033;-51
2021/09/30 13:19:43;;;;;;;2.75;0.85;;;16.40;87.00;;;;;;5029903;28;20071;-53
2021/09/30 13:22:11;;;;;;;6.35;1.45;;;16.50;87.00;;;;;;5029067;28;20024;-50
2021/09/30 13:24:38;;;;;;;4.72;1.35;;;16.50;87.60;;;;;;5030387;28;20025;-50
2021/09/30 13:27:06;;;;;;;3.72;0.90;;;16.40;86.90;;;;;;5030370;28;20037;-54
2021/09/30 13:29:32;;;;;;;1.20;0.90;;;16.40;87.70;;;;;;5030106;28;20037;-47
2021/09/30 13:31:58;;;;;;;2.08;0.88;;;16.40;88.70;;;;;;5031057;28;20291;-51
2021/09/30 13:34:23;;;;;;;1.05;1.00;;;16.60;88.70;;;;;;5030634;28;20029;-50
2021/09/30 13:36:49;;;;;;;3.72;1.00;;;16.60;87.90;;;;;;5030395;28;20167;-50
2021/09/30 13:39:21;;;;;;;1.70;0.98;;;16.60;88.60;;;;;;5030030;28;20030;-52
2021/09/30 13:41:46;;;;;;;4.28;1.55;;;16.80;89.20;;;;;;5030198;28;20072;-51
2021/09/30 13:44:12;;;;;;;3.65;0.90;;;16.90;85.60;;;;;;5029356;28;20089;-50
2021/09/30 13:46:38;;;;;;;1.40;0.88;;;16.80;85.70;;;;;;5030236;28;20022;-52
2021/09/30 13:49:04;;;;;;;1.50;1.00;;;16.80;86.00;;;;;;5029915;28;20026;-50
2021/09/30 13:51:33;;;;;;;1.45;0.98;;;16.90;87.10;;;;;;5030419;28;20018;-49
2021/09/30 13:53:59;;;;;;;4.72;1.00;;;16.80;84.90;;;;;;5030326;28;20422;-52
2021/09/30 13:56:25;;;;;;;2.67;0.73;;;16.60;86.00;;;;;;5030276;28;20029;-50
2021/09/30 13:58:52;;;;;;;2.58;1.17;;;16.50;85.20;;;;;;5032474;28;20029;-53
2021/09/30 14:01:17;;;;;;;5.47;1.17;;;16.40;86.40;;;;;;5033773;28;20124;-54
2021/09/30 14:03:43;;;;;;;0.80;0.80;;;16.30;87.00;;;;;;5032676;28;20116;-48
2021/09/30 14:06:09;;;;;;;2.67;0.95;;;16.20;88.10;;;;;;5032502;28;20018;-51
2021/09/30 14:08:40;;;;;;;3.53;0.95;;;16.20;88.40;;;;;;5033644;28;20059;-50
2021/09/30 14:11:07;;;;;;;6.20;1.20;;;16.20;88.20;;;;;;5033862;28;20030;-50
2021/09/30 14:13:32;;;;;;;4.38;1.58;;;16.10;88.20;;;;;;5033927;28;20029;-51
2021/09/30 14:15:58;;;;;;;3.95;1.33;;;16.10;88.50;;;;;;5033672;28;20025;-52
2021/09/30 14:18:23;;;;;;;5.53;1.33;;;16.10;89.20;;;;;;5033611;28;20025;-50
2021/09/30 14:20:51;;;;;;;3.15;1.17;;;16.00;89.40;;;;;;5033693;28;20028;-55
2021/09/30 14:23:17;;;;;;;2.85;1.33;;;15.90;90.00;;;;;;5033685;28;20014;-49
2021/09/30 14:25:42;;;;;;;0.98;0.98;;;16.00;89.80;;;;;;5033773;28;20029;-50
2021/09/30 14:28:08;;;;;;;3.35;1.42;;;16.00;90.20;;;;;;5033021;28;20482;-48
2021/09/30 14:30:33;;;;;;;2.55;0.90;;;16.00;89.60;;;;;;5031730;28;20387;-51
2021/09/30 14:32:59;;;;;;;1.42;0.95;;;16.00;89.00;;;;;;5033060;28;20033;-49
2021/09/30 14:35:25;;;;;;;2.85;1.13;;;15.90;89.40;;;;;;5033476;28;20483;-49
2021/09/30 14:37:50;;;;;;;3.22;1.08;;;15.90;90.00;;;;;;5033432;28;20458;-52
2021/09/30 14:40:16;;;;;;;7.75;1.15;;;15.90;90.00;;;;;;5031784;28;20399;-50
2021/09/30 14:42:42;;;;;;;2.30;1.38;;;15.80;89.60;;;;;;5033434;28;20498;-51
2021/09/30 14:45:08;;;;;;;1.50;1.00;;;15.80;90.30;;;;;;5033311;28;20096;-51
2021/09/30 14:47:33;;;;;;;3.10;1.27;;;15.80;90.80;;;;;;5033071;28;20542;-50
2021/09/30 14:49:59;;;;;;;2.47;0.93;;;15.80;91.40;;;;;;5033043;28;20411;-52
2021/09/30 14:52:25;;;;;;;4.65;1.27;;;15.90;90.70;;;;;;5033018;28;20024;-50
2021/09/30 14:54:51;;;;;;;1.38;1.00;;;15.80;91.10;;;;;;5033428;28;20372;-49
2021/09/30 14:57:17;;;;;;;5.55;1.00;;;15.90;91.50;;;;;;5031660;28;20026;-51
2021/09/30 14:59:43;;;;;;;2.88;1.45;;;16.00;90.80;;;;;;5032205;28;20210;-49
2021/09/30 15:02:09;;;;;;;4.47;1.40;;;16.00;90.80;;;;;;5031580;28;20028;-49
2021/09/30 15:04:35;;;;;;;7.05;1.73;;;16.00;91.00;;;;;;5032312;28;20096;-52
2021/09/30 15:07:00;;;;;;;4.95;1.10;;;16.00;90.60;;;;;;5032738;28;20098;-53
2021/09/30 15:09:26;;;;;;;3.50;1.00;;;15.90;90.40;;;;;;5030076;28;20033;-49
2021/09/30 15:11:52;;;;;;;3.47;1.08;;;15.90;90.20;;;;;;5032657;28;20029;-52
2021/09/30 15:14:18;;;;;;;6.85;1.38;;;15.90;90.50;;;;;;5032373;28;20033;-49
2021/09/30 15:16:52;;;;;;;2.10;1.20;;;15.90;90.90;;;;;;5032456;28;20112;-50
2021/09/30 15:19:22;;;;;;;3.28;1.13;;;15.90;90.90;;;;;;5031888;28;20025;-50
2021/09/30 15:21:48;;;;;;;1.80;1.10;;;16.00;92.00;;;;;;5032576;28;20025;-51
2021/09/30 15:24:15;;;;;;;1.63;1.30;;;15.90;90.90;;;;;;5031314;28;20080;-49
2021/09/30 15:26:43;;;;;;;1.58;1.08;;;15.90;90.00;;;;;;5032439;28;20507;-51
2021/09/30 15:29:09;;;;;;;2.58;1.30;;;15.90;90.30;;;;;;5032005;28;20029;-48
2021/09/30 15:31:35;;;;;;;3.30;1.30;;;15.80;90.50;;;;;;5031942;28;20022;-49
2021/09/30 15:34:00;;;;;;;7.32;1.58;;;15.80;90.90;;;;;;5032154;28;20393;-48
2021/09/30 15:36:28;;;;;;;34.92;22.25;;;15.80;90.90;;;;;;5032215;28;20025;-48
2021/09/30 15:38:57;;;;;;;6.38;1.30;;;15.70;91.10;;;;;;5031905;28;20021;-50